SWA2735 KLAS-KRNO
Flight info
| Callsign | SWA2735 |
|---|---|
| Flight time | 0h 57m |
| Altitude | 34000 |
| Route | JOHKR5 KENNO TARVR2 |
| Aircraft | B738/M-SADE2E3GIJ4RWZ/LB1D1 |
Departure
| Time | 2026-05-06 22:08 |
|---|---|
| Airport | Harry Reid International Airport (KLAS) |
Arrival
| Time | 2026-05-06 23:05 |
|---|---|
| Airport | Reno Tahoe International Airport (KRNO) |
| Time | Latitude | Longitude | Altitude | Speed | Heading |
|---|---|---|---|---|---|
| 2026-05-06 21:37 | 36.08227 | -115.15102 | 2125 ft | 0 kts | 14° |
| 2026-05-06 21:58 | 36.08226 | -115.15102 | 2125 ft | 1 kts | 14° |
| 2026-05-06 21:59 | 36.08216 | -115.15105 | 2125 ft | 0 kts | 14° |
| 2026-05-06 21:59 | 36.08203 | -115.15108 | 2125 ft | 2 kts | 2° |
| 2026-05-06 21:59 | 36.08188 | -115.15107 | 2126 ft | 2 kts | 349° |
| 2026-05-06 21:59 | 36.08174 | -115.15101 | 2126 ft | 2 kts | 335° |
| 2026-05-06 22:00 | 36.08161 | -115.15092 | 2126 ft | 2 kts | 321° |
| 2026-05-06 22:00 | 36.08155 | -115.15085 | 2126 ft | 1 kts | 313° |
| 2026-05-06 22:00 | 36.08153 | -115.15082 | 2125 ft | 0 kts | 313° |
| 2026-05-06 22:02 | 36.08155 | -115.15087 | 2126 ft | 2 kts | 288° |
| 2026-05-06 22:02 | 36.08122 | -115.15112 | 2127 ft | 11 kts | 186° |
| 2026-05-06 22:03 | 36.08033 | -115.15112 | 2128 ft | 12 kts | 179° |
| 2026-05-06 22:03 | 36.07956 | -115.15111 | 2130 ft | 8 kts | 179° |
| 2026-05-06 22:03 | 36.07889 | -115.15109 | 2130 ft | 13 kts | 179° |
| 2026-05-06 22:03 | 36.07870 | -115.15051 | 2129 ft | 14 kts | 85° |
| 2026-05-06 22:04 | 36.07862 | -115.14854 | 2121 ft | 30 kts | 95° |
| 2026-05-06 22:04 | 36.07843 | -115.14583 | 2112 ft | 33 kts | 94° |
| 2026-05-06 22:04 | 36.07826 | -115.14287 | 2102 ft | 35 kts | 91° |
| 2026-05-06 22:04 | 36.07827 | -115.13977 | 2093 ft | 37 kts | 90° |
| 2026-05-06 22:05 | 36.07825 | -115.13653 | 2084 ft | 38 kts | 89° |
| 2026-05-06 22:05 | 36.07825 | -115.13315 | 2076 ft | 39 kts | 89° |
| 2026-05-06 22:05 | 36.07828 | -115.13030 | 2069 ft | 26 kts | 91° |
| 2026-05-06 22:05 | 36.07827 | -115.12788 | 2064 ft | 29 kts | 90° |
| 2026-05-06 22:06 | 36.07827 | -115.12530 | 2062 ft | 30 kts | 90° |
| 2026-05-06 22:06 | 36.07823 | -115.12275 | 2058 ft | 25 kts | 107° |
| 2026-05-06 22:06 | 36.07753 | -115.12152 | 2058 ft | 11 kts | 132° |
| 2026-05-06 22:06 | 36.07672 | -115.12123 | 2058 ft | 16 kts | 194° |
| 2026-05-06 22:07 | 36.07643 | -115.12440 | 2061 ft | 70 kts | 270° |
| 2026-05-06 22:07 | 36.07643 | -115.13294 | 2077 ft | 127 kts | 270° |
| 2026-05-06 22:07 | 36.07642 | -115.14595 | 2121 ft | 171 kts | 270° |
| 2026-05-06 22:07 | 36.07642 | -115.16041 | 2672 ft | 169 kts | 270° |
| 2026-05-06 22:08 | 36.07639 | -115.17526 | 3148 ft | 177 kts | 271° |
| 2026-05-06 22:08 | 36.07638 | -115.19073 | 3473 ft | 190 kts | 271° |
| 2026-05-06 22:08 | 36.07611 | -115.20788 | 3718 ft | 208 kts | 265° |
| 2026-05-06 22:08 | 36.07371 | -115.22604 | 4078 ft | 222 kts | 259° |
| 2026-05-06 22:09 | 36.06947 | -115.24511 | 4534 ft | 234 kts | 247° |
| 2026-05-06 22:09 | 36.06008 | -115.26109 | 5131 ft | 238 kts | 219° |
| 2026-05-06 22:09 | 36.04502 | -115.27062 | 5566 ft | 251 kts | 200° |
| 2026-05-06 22:09 | 36.02803 | -115.27786 | 5932 ft | 267 kts | 199° |
| 2026-05-06 22:10 | 36.01007 | -115.28566 | 6315 ft | 282 kts | 200° |
| 2026-05-06 22:10 | 35.99149 | -115.29449 | 6856 ft | 289 kts | 206° |
| 2026-05-06 22:10 | 35.97347 | -115.30587 | 7527 ft | 295 kts | 209° |
| 2026-05-06 22:10 | 35.95533 | -115.31802 | 8319 ft | 300 kts | 210° |
| 2026-05-06 22:11 | 35.93670 | -115.33016 | 9119 ft | 305 kts | 209° |
| 2026-05-06 22:11 | 35.91819 | -115.34240 | 9986 ft | 307 kts | 212° |
| 2026-05-06 22:11 | 35.90112 | -115.35859 | 10658 ft | 313 kts | 231° |
| 2026-05-06 22:11 | 35.88970 | -115.38153 | 11333 ft | 317 kts | 253° |
| 2026-05-06 22:12 | 35.88563 | -115.40853 | 11784 ft | 327 kts | 272° |
| 2026-05-06 22:12 | 35.88591 | -115.43713 | 12204 ft | 341 kts | 276° |
| 2026-05-06 22:12 | 35.88671 | -115.46673 | 12834 ft | 352 kts | 277° |
| 2026-05-06 22:12 | 35.88746 | -115.49682 | 13549 ft | 359 kts | 276° |
| 2026-05-06 22:13 | 35.88814 | -115.52756 | 14316 ft | 362 kts | 276° |
| 2026-05-06 22:13 | 35.88876 | -115.55874 | 15066 ft | 366 kts | 276° |
| 2026-05-06 22:13 | 35.88938 | -115.59014 | 15765 ft | 371 kts | 276° |
| 2026-05-06 22:13 | 35.88999 | -115.62207 | 16435 ft | 376 kts | 276° |
| 2026-05-06 22:14 | 35.89059 | -115.65440 | 17124 ft | 379 kts | 275° |
| 2026-05-06 22:14 | 35.89119 | -115.68687 | 17735 ft | 385 kts | 275° |
| 2026-05-06 22:14 | 35.89180 | -115.72011 | 18398 ft | 388 kts | 275° |
| 2026-05-06 22:14 | 35.89238 | -115.75317 | 19005 ft | 393 kts | 275° |
| 2026-05-06 22:15 | 35.89297 | -115.78680 | 19642 ft | 396 kts | 275° |
| 2026-05-06 22:15 | 35.89357 | -115.82077 | 20248 ft | 400 kts | 275° |
| 2026-05-06 22:15 | 35.89444 | -115.85516 | 20848 ft | 403 kts | 277° |
| 2026-05-06 22:15 | 35.89744 | -115.88975 | 21432 ft | 403 kts | 285° |
| 2026-05-06 22:16 | 35.90470 | -115.92242 | 22003 ft | 401 kts | 295° |
| 2026-05-06 22:16 | 35.91672 | -115.95306 | 22578 ft | 397 kts | 306° |
| 2026-05-06 22:16 | 35.93259 | -115.98119 | 23093 ft | 397 kts | 313° |
| 2026-05-06 22:16 | 35.95036 | -116.00671 | 23612 ft | 399 kts | 317° |
| 2026-05-06 22:17 | 35.96966 | -116.03161 | 24168 ft | 400 kts | 319° |
| 2026-05-06 22:17 | 35.98946 | -116.05596 | 24723 ft | 402 kts | 320° |
| 2026-05-06 22:17 | 36.00946 | -116.08018 | 25245 ft | 405 kts | 320° |
| 2026-05-06 22:17 | 36.02945 | -116.10437 | 25707 ft | 408 kts | 320° |
| 2026-05-06 22:18 | 36.04987 | -116.12923 | 26210 ft | 411 kts | 320° |
| 2026-05-06 22:18 | 36.06997 | -116.15384 | 26692 ft | 413 kts | 320° |
| 2026-05-06 22:18 | 36.09038 | -116.17893 | 27187 ft | 415 kts | 320° |
| 2026-05-06 22:18 | 36.11088 | -116.20425 | 27668 ft | 417 kts | 320° |
| 2026-05-06 22:19 | 36.13148 | -116.22974 | 28074 ft | 420 kts | 320° |
| 2026-05-06 22:19 | 36.15212 | -116.25530 | 28515 ft | 423 kts | 320° |
| 2026-05-06 22:19 | 36.17267 | -116.28082 | 28957 ft | 425 kts | 320° |
| 2026-05-06 22:19 | 36.19363 | -116.30692 | 29563 ft | 423 kts | 320° |
| 2026-05-06 22:20 | 36.21408 | -116.33241 | 30180 ft | 420 kts | 320° |
| 2026-05-06 22:20 | 36.23455 | -116.35797 | 30721 ft | 418 kts | 320° |
| 2026-05-06 22:20 | 36.25509 | -116.38361 | 31199 ft | 417 kts | 320° |
| 2026-05-06 22:20 | 36.27528 | -116.40881 | 31669 ft | 416 kts | 320° |
| 2026-05-06 22:21 | 36.29580 | -116.43424 | 32175 ft | 414 kts | 321° |
| 2026-05-06 22:21 | 36.31611 | -116.45873 | 32620 ft | 412 kts | 322° |
| 2026-05-06 22:21 | 36.33684 | -116.48330 | 33075 ft | 411 kts | 322° |
| 2026-05-06 22:21 | 36.35737 | -116.50751 | 33484 ft | 410 kts | 322° |
| 2026-05-06 22:22 | 36.37816 | -116.53205 | 33944 ft | 408 kts | 322° |
| 2026-05-06 22:22 | 36.39871 | -116.55634 | 34089 ft | 413 kts | 322° |
| 2026-05-06 22:22 | 36.44027 | -116.60571 | 34095 ft | 406 kts | 322° |
| 2026-05-06 22:23 | 36.48190 | -116.65414 | 34116 ft | 407 kts | 323° |
| 2026-05-06 22:23 | 36.52421 | -116.70185 | 34129 ft | 406 kts | 323° |
| 2026-05-06 22:24 | 36.56611 | -116.74919 | 34139 ft | 406 kts | 323° |
| 2026-05-06 22:24 | 36.60792 | -116.79669 | 34135 ft | 406 kts | 323° |
| 2026-05-06 22:25 | 36.64941 | -116.84399 | 34128 ft | 407 kts | 322° |
| 2026-05-06 22:25 | 36.69137 | -116.89194 | 34132 ft | 407 kts | 322° |
| 2026-05-06 22:26 | 36.73379 | -116.93808 | 34152 ft | 403 kts | 328° |
| 2026-05-06 22:26 | 36.78073 | -116.97471 | 34167 ft | 397 kts | 336° |
| 2026-05-06 22:27 | 36.82969 | -117.00606 | 34179 ft | 398 kts | 338° |
| 2026-05-06 22:27 | 36.87920 | -117.03719 | 34181 ft | 398 kts | 337° |
| 2026-05-06 22:28 | 36.92839 | -117.06860 | 34189 ft | 396 kts | 337° |
| 2026-05-06 22:28 | 36.97722 | -117.10013 | 34204 ft | 396 kts | 336° |
| 2026-05-06 22:29 | 37.02637 | -117.13205 | 34217 ft | 397 kts | 336° |
| 2026-05-06 22:29 | 37.07539 | -117.16398 | 34213 ft | 397 kts | 336° |
| 2026-05-06 22:30 | 37.12448 | -117.19604 | 34221 ft | 397 kts | 336° |
| 2026-05-06 22:30 | 37.17340 | -117.22807 | 34236 ft | 397 kts | 336° |
| 2026-05-06 22:31 | 37.22249 | -117.26025 | 34236 ft | 396 kts | 336° |
| 2026-05-06 22:31 | 37.27124 | -117.29243 | 34243 ft | 396 kts | 335° |
| 2026-05-06 22:32 | 37.31746 | -117.33080 | 34245 ft | 401 kts | 327° |
| 2026-05-06 22:32 | 37.36072 | -117.37542 | 34246 ft | 403 kts | 324° |
| 2026-05-06 22:33 | 37.40309 | -117.42118 | 34253 ft | 403 kts | 324° |
| 2026-05-06 22:33 | 37.44560 | -117.46716 | 34265 ft | 402 kts | 324° |
| 2026-05-06 22:34 | 37.48720 | -117.51367 | 34271 ft | 404 kts | 319° |
| 2026-05-06 22:34 | 37.52455 | -117.56695 | 34276 ft | 409 kts | 314° |
| 2026-05-06 22:35 | 37.55996 | -117.62331 | 34268 ft | 408 kts | 313° |
| 2026-05-06 22:35 | 37.59485 | -117.67964 | 34278 ft | 408 kts | 312° |
| 2026-05-06 22:36 | 37.62980 | -117.73590 | 34279 ft | 409 kts | 312° |
| 2026-05-06 22:36 | 37.66483 | -117.79221 | 34287 ft | 408 kts | 312° |
| 2026-05-06 22:37 | 37.69979 | -117.84840 | 34280 ft | 407 kts | 312° |
| 2026-05-06 22:37 | 37.73486 | -117.90487 | 34278 ft | 407 kts | 312° |
| 2026-05-06 22:38 | 37.76974 | -117.96110 | 34271 ft | 407 kts | 312° |
| 2026-05-06 22:38 | 37.80466 | -118.01747 | 34262 ft | 407 kts | 312° |
| 2026-05-06 22:39 | 37.83926 | -118.07346 | 34277 ft | 406 kts | 312° |
| 2026-05-06 22:39 | 37.87385 | -118.12950 | 34276 ft | 406 kts | 313° |
| 2026-05-06 22:40 | 37.90864 | -118.18598 | 34284 ft | 405 kts | 312° |
| 2026-05-06 22:40 | 37.94324 | -118.24225 | 34279 ft | 405 kts | 312° |
| 2026-05-06 22:41 | 37.99494 | -118.32645 | 34291 ft | 405 kts | 312° |
| 2026-05-06 22:42 | 38.02948 | -118.38287 | 34309 ft | 405 kts | 312° |
| 2026-05-06 22:42 | 38.06385 | -118.43907 | 34316 ft | 404 kts | 312° |
| 2026-05-06 22:43 | 38.09819 | -118.49533 | 34325 ft | 404 kts | 312° |
| 2026-05-06 22:43 | 38.13250 | -118.55164 | 34328 ft | 404 kts | 312° |
| 2026-05-06 22:44 | 38.16675 | -118.60795 | 34256 ft | 404 kts | 311° |
| 2026-05-06 22:44 | 38.18393 | -118.63625 | 33903 ft | 400 kts | 311° |
| 2026-05-06 22:44 | 38.20092 | -118.66428 | 33448 ft | 401 kts | 311° |
| 2026-05-06 22:44 | 38.21800 | -118.69241 | 32842 ft | 408 kts | 311° |
| 2026-05-06 22:45 | 38.23538 | -118.72102 | 32154 ft | 415 kts | 311° |
| 2026-05-06 22:45 | 38.25314 | -118.75029 | 31421 ft | 420 kts | 310° |
| 2026-05-06 22:45 | 38.27088 | -118.77959 | 30679 ft | 422 kts | 310° |
| 2026-05-06 22:45 | 38.28875 | -118.80918 | 29912 ft | 424 kts | 310° |
| 2026-05-06 22:46 | 38.30651 | -118.83862 | 29142 ft | 425 kts | 310° |
| 2026-05-06 22:46 | 38.32445 | -118.86839 | 28689 ft | 418 kts | 310° |
| 2026-05-06 22:46 | 38.34183 | -118.89730 | 28204 ft | 412 kts | 310° |
| 2026-05-06 22:46 | 38.35922 | -118.92624 | 27693 ft | 407 kts | 310° |
| 2026-05-06 22:47 | 38.37617 | -118.95446 | 27192 ft | 403 kts | 310° |
| 2026-05-06 22:47 | 38.39304 | -118.98257 | 26688 ft | 398 kts | 310° |
| 2026-05-06 22:47 | 38.40974 | -119.01041 | 26182 ft | 394 kts | 310° |
| 2026-05-06 22:47 | 38.42634 | -119.03809 | 25672 ft | 391 kts | 310° |
| 2026-05-06 22:48 | 38.44273 | -119.06542 | 25180 ft | 394 kts | 310° |
| 2026-05-06 22:48 | 38.45945 | -119.09330 | 24670 ft | 394 kts | 310° |
| 2026-05-06 22:48 | 38.47582 | -119.12064 | 24155 ft | 390 kts | 310° |
| 2026-05-06 22:48 | 38.49225 | -119.14812 | 23637 ft | 385 kts | 310° |
| 2026-05-06 22:49 | 38.50825 | -119.17514 | 23329 ft | 379 kts | 309° |
| 2026-05-06 22:49 | 38.52328 | -119.20251 | 23329 ft | 381 kts | 307° |
| 2026-05-06 22:49 | 38.53798 | -119.23084 | 23225 ft | 385 kts | 306° |
| 2026-05-06 22:49 | 38.55260 | -119.25963 | 22771 ft | 383 kts | 306° |
| 2026-05-06 22:50 | 38.56681 | -119.28774 | 22283 ft | 378 kts | 306° |
| 2026-05-06 22:50 | 38.58101 | -119.31574 | 21790 ft | 374 kts | 306° |
| 2026-05-06 22:50 | 38.59507 | -119.34335 | 21291 ft | 371 kts | 307° |
| 2026-05-06 22:50 | 38.60909 | -119.37076 | 20801 ft | 367 kts | 307° |
| 2026-05-06 22:51 | 38.62307 | -119.39803 | 20304 ft | 364 kts | 307° |
| 2026-05-06 22:51 | 38.63686 | -119.42490 | 19809 ft | 361 kts | 307° |
| 2026-05-06 22:51 | 38.65063 | -119.45157 | 19289 ft | 359 kts | 307° |
| 2026-05-06 22:51 | 38.66418 | -119.47773 | 18826 ft | 355 kts | 307° |
| 2026-05-06 22:52 | 38.67774 | -119.50388 | 18349 ft | 353 kts | 307° |
| 2026-05-06 22:52 | 38.69120 | -119.52984 | 17885 ft | 350 kts | 307° |
| 2026-05-06 22:52 | 38.70470 | -119.55590 | 17410 ft | 354 kts | 307° |
| 2026-05-06 22:52 | 38.71846 | -119.58242 | 16917 ft | 361 kts | 307° |
| 2026-05-06 22:53 | 38.73220 | -119.60899 | 16423 ft | 359 kts | 307° |
| 2026-05-06 22:53 | 38.74586 | -119.63545 | 15933 ft | 356 kts | 307° |
| 2026-05-06 22:53 | 38.75953 | -119.66199 | 15441 ft | 353 kts | 306° |
| 2026-05-06 22:53 | 38.77290 | -119.68794 | 14966 ft | 351 kts | 306° |
| 2026-05-06 22:54 | 38.78638 | -119.71415 | 14536 ft | 346 kts | 306° |
| 2026-05-06 22:54 | 38.79972 | -119.73877 | 14323 ft | 334 kts | 311° |
| 2026-05-06 22:54 | 38.81549 | -119.75948 | 14170 ft | 317 kts | 327° |
| 2026-05-06 22:54 | 38.83502 | -119.77032 | 14097 ft | 298 kts | 352° |
| 2026-05-06 22:55 | 38.85564 | -119.77158 | 14104 ft | 295 kts | 2° |
| 2026-05-06 22:55 | 38.87603 | -119.77097 | 14099 ft | 296 kts | 2° |
| 2026-05-06 22:55 | 38.89662 | -119.77064 | 13927 ft | 291 kts | 1° |
| 2026-05-06 22:55 | 38.91689 | -119.77056 | 13559 ft | 292 kts | 1° |
| 2026-05-06 22:56 | 38.93729 | -119.77046 | 13225 ft | 293 kts | 1° |
| 2026-05-06 22:56 | 38.95748 | -119.77028 | 12863 ft | 294 kts | 1° |
| 2026-05-06 22:56 | 38.97815 | -119.77016 | 12463 ft | 295 kts | 1° |
| 2026-05-06 22:56 | 38.99853 | -119.77004 | 12026 ft | 295 kts | 1° |
| 2026-05-06 22:57 | 39.01909 | -119.76992 | 11627 ft | 294 kts | 1° |
| 2026-05-06 22:57 | 39.03930 | -119.76984 | 11452 ft | 284 kts | 1° |
| 2026-05-06 22:57 | 39.05869 | -119.76986 | 11377 ft | 271 kts | 1° |
| 2026-05-06 22:57 | 39.07715 | -119.76981 | 11290 ft | 259 kts | 1° |
| 2026-05-06 22:58 | 39.09488 | -119.76962 | 11195 ft | 248 kts | 1° |
| 2026-05-06 22:58 | 39.11183 | -119.76946 | 11094 ft | 241 kts | 1° |
| 2026-05-06 22:58 | 39.12844 | -119.76928 | 10814 ft | 240 kts | 1° |
| 2026-05-06 22:58 | 39.14524 | -119.76894 | 10521 ft | 239 kts | 0° |
| 2026-05-06 22:59 | 39.16170 | -119.76923 | 10299 ft | 236 kts | 359° |
| 2026-05-06 22:59 | 39.17820 | -119.76976 | 10054 ft | 236 kts | 359° |
| 2026-05-06 22:59 | 39.19446 | -119.76997 | 9856 ft | 233 kts | 0° |
| 2026-05-06 22:59 | 39.21072 | -119.77003 | 9587 ft | 234 kts | 0° |
| 2026-05-06 23:00 | 39.22698 | -119.76992 | 9344 ft | 233 kts | 1° |
| 2026-05-06 23:00 | 39.24326 | -119.76973 | 9090 ft | 234 kts | 1° |
| 2026-05-06 23:00 | 39.25950 | -119.76971 | 8855 ft | 233 kts | 0° |
| 2026-05-06 23:00 | 39.27582 | -119.76971 | 8616 ft | 233 kts | 360° |
| 2026-05-06 23:01 | 39.29189 | -119.76991 | 8329 ft | 231 kts | 359° |
| 2026-05-06 23:01 | 39.30763 | -119.77012 | 8113 ft | 220 kts | 0° |
| 2026-05-06 23:01 | 39.32271 | -119.77002 | 7884 ft | 210 kts | 1° |
| 2026-05-06 23:01 | 39.33702 | -119.76970 | 7667 ft | 201 kts | 2° |
| 2026-05-06 23:02 | 39.35058 | -119.76891 | 7456 ft | 193 kts | 4° |
| 2026-05-06 23:02 | 39.36396 | -119.76788 | 7248 ft | 190 kts | 4° |
| 2026-05-06 23:02 | 39.37700 | -119.76678 | 7071 ft | 185 kts | 4° |
| 2026-05-06 23:02 | 39.38974 | -119.76654 | 6861 ft | 183 kts | 360° |
| 2026-05-06 23:03 | 39.40258 | -119.76675 | 6566 ft | 181 kts | 1° |
| 2026-05-06 23:03 | 39.41483 | -119.76688 | 6260 ft | 173 kts | 1° |
| 2026-05-06 23:03 | 39.42661 | -119.76693 | 5944 ft | 167 kts | 2° |
| 2026-05-06 23:03 | 39.43787 | -119.76695 | 5714 ft | 157 kts | 3° |
| 2026-05-06 23:04 | 39.44868 | -119.76699 | 5466 ft | 157 kts | 3° |
| 2026-05-06 23:04 | 39.45961 | -119.76688 | 5235 ft | 156 kts | 4° |
| 2026-05-06 23:04 | 39.47060 | -119.76686 | 4979 ft | 159 kts | 4° |
| 2026-05-06 23:04 | 39.48181 | -119.76685 | 4690 ft | 160 kts | 2° |
| 2026-05-06 23:05 | 39.49287 | -119.76683 | 4437 ft | 159 kts | 2° |
| 2026-05-06 23:05 | 39.50214 | -119.76677 | 4414 ft | 97 kts | 1° |
| 2026-05-06 23:05 | 39.50681 | -119.76677 | 4416 ft | 42 kts | 359° |
| 2026-05-06 23:05 | 39.50938 | -119.76708 | 4418 ft | 33 kts | 334° |
| 2026-05-06 23:06 | 39.51051 | -119.76833 | 4419 ft | 19 kts | 316° |
| 2026-05-06 23:06 | 39.51101 | -119.76984 | 4420 ft | 18 kts | 268° |
| 2026-05-06 23:06 | 39.51080 | -119.77140 | 4421 ft | 17 kts | 214° |
| 2026-05-06 23:06 | 39.50955 | -119.77150 | 4421 ft | 18 kts | 178° |
| 2026-05-06 23:07 | 39.50826 | -119.77151 | 4421 ft | 18 kts | 181° |
| 2026-05-06 23:07 | 39.50693 | -119.77151 | 4420 ft | 19 kts | 179° |
| 2026-05-06 23:07 | 39.50568 | -119.77152 | 4420 ft | 14 kts | 191° |
| 2026-05-06 23:07 | 39.50521 | -119.77224 | 4421 ft | 4 kts | 244° |
| 2026-05-06 23:08 | 39.50518 | -119.77233 | 4421 ft | 0 kts | 244° |